Sarasota, Florida
Current Conditions -  °F | °C
As of 4:53 PM on Sunday 23 Nov 2014 (Local Time) from KSRQ Reporting Station
Few Clouds Few Clouds  
Wind Chill: 78°   Ceiling: Unl
Heat Index: 80°   Visibility: 10mi
Dew Point: 72°   Wind: 15mph
Humidity: 81%   Direction: 190°S
Pressure: 29.88"   Gusts: 24mph
Location:  27.34°N, 82.54°W
Report Text: KSRQ 232153Z AUTO 19013G21KT 10SM FEW020 26/22 A2988 RMK AO2 PK WND 19026/2057 SLP118 T02560222
Loading
Personal Weather Stations






























Interactive Weather Map New forecast layout! Learn more

10-Day Weather Forecast

Advertisements
Track Severe Weather on mobile